createdAt,value
2023-05-14T00:04:22.483Z,101410.78
2023-05-14T00:49:29.551Z,101379.00
2023-05-14T01:08:46.660Z,101373.22
2023-05-14T01:11:04.676Z,101367.91
2023-05-14T01:13:34.424Z,101375.53
2023-05-14T01:16:14.420Z,101376.06
2023-05-14T01:19:08.410Z,101366.06
2023-05-14T01:21:57.544Z,101371.41
2023-05-14T01:24:33.321Z,101367.25
2023-05-14T01:27:13.972Z,101362.59
2023-05-14T01:29:21.765Z,101365.06
2023-05-14T01:31:31.660Z,101361.09
2023-05-14T01:33:32.175Z,101367.88
2023-05-14T01:35:50.493Z,101363.06
2023-05-14T01:38:10.433Z,101369.88
2023-05-14T01:40:23.779Z,101360.56
2023-05-14T01:42:36.611Z,101359.25
2023-05-14T01:44:54.927Z,101361.09
2023-05-14T01:47:38.244Z,101361.09
2023-05-14T01:49:58.218Z,101351.44
2023-05-14T01:52:48.472Z,101357.09
2023-05-14T01:55:05.927Z,101357.44
2023-05-14T01:57:00.954Z,101352.41
2023-05-14T01:58:56.967Z,101353.59
2023-05-14T02:00:51.997Z,101351.25
2023-05-14T02:02:47.457Z,101357.91
2023-05-14T02:04:42.508Z,101354.59
2023-05-14T02:06:37.857Z,101350.09
2023-05-14T02:08:32.948Z,101350.94
2023-05-14T02:10:30.945Z,101355.25
2023-05-14T02:12:26.404Z,101351.59
2023-05-14T02:14:21.776Z,101351.75
2023-05-14T02:16:16.870Z,101342.13
2023-05-14T02:18:12.717Z,101351.94
2023-05-14T02:20:10.371Z,101343.44
2023-05-14T02:22:06.129Z,101343.25
2023-05-14T02:24:01.144Z,101355.06
2023-05-14T02:25:59.127Z,101347.25
2023-05-14T02:27:54.270Z,101349.41
2023-05-14T02:29:50.265Z,101346.38
2023-05-14T02:31:45.325Z,101339.03
2023-05-14T02:33:38.172Z,101349.00
2023-05-14T02:35:33.222Z,101343.53
2023-05-14T02:37:28.681Z,101346.00
2023-05-14T02:39:23.688Z,101342.53
2023-05-14T02:41:21.661Z,101343.03
2023-05-14T02:43:16.668Z,101343.88
2023-05-14T02:45:12.911Z,101345.34
2023-05-14T02:47:08.970Z,101342.88
2023-05-14T02:49:04.404Z,101342.34
2023-05-14T02:50:59.491Z,101342.53
2023-05-14T02:52:54.830Z,101344.19
2023-05-14T02:54:49.810Z,101341.34
2023-05-14T02:56:47.775Z,101340.16
2023-05-14T02:58:42.789Z,101342.34
2023-05-14T03:00:38.231Z,101346.13
2023-05-14T03:02:33.710Z,101339.16
2023-05-14T03:04:29.758Z,101338.00
2023-05-14T03:06:24.788Z,101338.50
2023-05-14T03:08:20.119Z,101335.19
2023-05-14T03:10:15.126Z,101342.81
2023-05-14T03:12:14.454Z,101339.34
2023-05-14T03:14:09.777Z,101335.50
2023-05-14T03:16:05.470Z,101338.81
2023-05-14T03:18:00.850Z,101351.09
2023-05-14T03:19:56.528Z,101349.28
2023-05-14T03:21:52.315Z,101345.63
2023-05-14T03:23:47.722Z,101349.28
2023-05-14T03:25:42.733Z,101350.25
2023-05-14T03:27:40.769Z,101348.56
2023-05-14T03:29:35.959Z,101346.09
2023-05-14T03:31:31.679Z,101346.25
2023-05-14T03:33:26.709Z,101337.81
2023-05-14T03:35:22.200Z,101342.81
2023-05-14T03:37:17.174Z,101345.97
2023-05-14T03:39:15.565Z,101345.81
2023-05-14T03:41:10.687Z,101340.34
2023-05-14T03:43:08.842Z,101342.53
2023-05-14T03:45:03.899Z,101347.66
2023-05-14T03:46:59.213Z,101338.50
2023-05-14T03:48:54.266Z,101341.81
2023-05-14T03:50:49.700Z,101340.31
2023-05-14T03:52:44.755Z,101336.97
2023-05-14T03:54:41.376Z,101343.59
2023-05-14T03:56:36.475Z,101332.84
2023-05-14T03:58:34.465Z,101331.84
2023-05-14T04:00:29.503Z,101337.97
2023-05-14T04:02:25.062Z,101333.50
2023-05-14T04:04:20.332Z,101332.50
2023-05-14T04:06:16.307Z,101339.63
2023-05-14T04:08:11.414Z,101332.66
2023-05-14T04:10:07.253Z,101332.31
2023-05-14T04:12:02.304Z,101335.97
2023-05-14T04:14:02.271Z,101336.81
2023-05-14T04:15:57.316Z,101339.91
2023-05-14T04:17:52.737Z,101337.38
2023-05-14T04:19:47.913Z,101332.06
2023-05-14T04:21:43.274Z,101330.72
2023-05-14T04:23:38.219Z,101336.69
2023-05-14T04:25:33.533Z,101329.06
2023-05-14T04:27:28.560Z,101323.06
2023-05-14T04:29:26.518Z,101323.22
2023-05-14T04:31:21.589Z,101332.38
2023-05-14T04:33:17.027Z,101326.75
2023-05-14T04:35:13.024Z,101328.25
2023-05-14T04:37:09.100Z,101325.91
2023-05-14T04:39:04.159Z,101328.38
2023-05-14T04:40:59.459Z,101319.09
2023-05-14T04:46:14.687Z,101318.88
2023-05-14T04:48:20.503Z,101311.94
2023-05-14T04:51:12.600Z,101314.59
2023-05-14T04:53:27.365Z,101311.25
2023-05-14T04:55:22.744Z,101314.06
2023-05-14T04:57:17.867Z,101306.44
2023-05-14T04:59:19.638Z,101316.72
2023-05-14T05:01:25.392Z,101317.88
2023-05-14T05:03:23.021Z,101309.94
2023-05-14T05:05:18.956Z,101316.72
2023-05-14T05:07:14.717Z,101310.94
2023-05-14T05:09:10.020Z,101315.25
2023-05-14T05:11:05.349Z,101318.91
2023-05-14T05:13:00.414Z,101316.56
2023-05-14T05:14:55.835Z,101316.25
2023-05-14T05:16:53.867Z,101320.25
2023-05-14T05:18:49.343Z,101312.13
2023-05-14T05:20:44.335Z,101317.28
2023-05-14T05:22:39.959Z,101317.94
2023-05-14T05:24:35.278Z,101309.53
2023-05-14T05:26:31.830Z,101309.69
2023-05-14T05:28:27.116Z,101312.16
2023-05-14T05:30:24.662Z,101312.38
2023-05-14T05:32:25.146Z,101312.72
2023-05-14T05:34:20.914Z,101310.59
2023-05-14T05:36:16.062Z,101309.59
2023-05-14T05:38:11.446Z,101304.97
2023-05-14T05:40:07.198Z,101312.59
2023-05-14T05:42:02.798Z,101305.97
2023-05-14T05:44:00.715Z,101303.47
2023-05-14T05:45:56.034Z,101297.84
2023-05-14T05:47:53.646Z,101303.97
2023-05-14T05:49:49.176Z,101301.31
2023-05-14T05:51:44.111Z,101301.00
2023-05-14T05:53:39.558Z,101296.88
2023-05-14T05:55:34.532Z,101289.44
2023-05-14T05:57:29.987Z,101302.19
2023-05-14T05:59:27.003Z,101300.06
2023-05-14T06:01:22.655Z,101300.25
2023-05-14T06:03:23.467Z,101305.25
2023-05-14T06:05:21.657Z,101304.25
2023-05-14T06:07:16.967Z,101306.41
2023-05-14T06:09:13.328Z,101305.13
2023-05-14T06:11:08.494Z,101297.16
2023-05-14T06:13:03.830Z,101311.91
2023-05-14T06:14:59.026Z,101300.28
2023-05-14T06:16:54.466Z,101299.63
2023-05-14T06:18:52.971Z,101299.28
2023-05-14T06:20:48.437Z,101300.28
2023-05-14T06:22:43.456Z,101299.97
2023-05-14T06:24:38.770Z,101290.84
2023-05-14T06:26:33.758Z,101300.31
2023-05-14T06:28:29.105Z,101300.97
2023-05-14T06:30:24.565Z,101296.13
2023-05-14T06:32:20.150Z,101300.44
2023-05-14T06:34:19.061Z,101302.47
2023-05-14T06:36:19.353Z,101294.81
2023-05-14T06:38:19.496Z,101291.00
2023-05-14T06:40:18.809Z,101299.31
2023-05-14T06:42:14.198Z,101300.97
2023-05-14T06:44:09.571Z,101299.31
2023-05-14T06:46:04.638Z,101298.97
2023-05-14T06:50:46.889Z,101295.50
2023-05-14T06:52:43.710Z,101296.50
2023-05-14T06:54:39.510Z,101291.66
2023-05-14T06:56:34.553Z,101299.28
2023-05-14T06:58:29.832Z,101296.63
2023-05-14T07:00:26.106Z,101301.59
2023-05-14T07:02:22.271Z,101291.94
2023-05-14T07:04:17.706Z,101291.91
2023-05-14T07:06:17.622Z,101292.41
2023-05-14T07:08:12.616Z,101292.72
2023-05-14T07:10:09.922Z,101284.25
2023-05-14T07:12:05.697Z,101286.06
2023-05-14T07:14:03.224Z,101283.06
2023-05-14T07:15:58.500Z,101281.41
2023-05-14T07:17:54.014Z,101284.25
2023-05-14T07:19:49.058Z,101291.19
2023-05-14T07:21:47.074Z,101279.72
2023-05-14T07:23:42.120Z,101285.34
2023-05-14T07:25:37.479Z,101288.16
2023-05-14T07:27:32.594Z,101288.31
2023-05-14T07:29:30.225Z,101278.63
2023-05-14T07:31:25.636Z,101282.44
2023-05-14T07:33:21.448Z,101269.00
2023-05-14T07:35:16.920Z,101275.09
2023-05-14T07:37:16.511Z,101279.25
2023-05-14T07:39:13.370Z,101270.94
2023-05-14T07:41:08.735Z,101267.19
2023-05-14T07:43:04.114Z,101265.72
2023-05-14T07:44:59.491Z,101267.50
2023-05-14T07:46:54.633Z,101263.97
2023-05-14T07:48:52.826Z,101259.41
2023-05-14T07:50:48.215Z,101262.56
2023-05-14T07:52:46.168Z,101257.00
2023-05-14T07:54:41.265Z,101253.63
2023-05-14T07:56:36.672Z,101251.25
2023-05-14T07:58:32.025Z,101250.75
2023-05-14T08:00:27.544Z,101251.34
2023-05-14T08:02:22.634Z,101253.81
2023-05-14T08:04:18.330Z,101250.41
2023-05-14T08:06:13.601Z,101248.03
2023-05-14T08:08:12.599Z,101240.41
2023-05-14T08:10:09.058Z,101245.38
2023-05-14T08:12:04.472Z,101239.03
2023-05-14T08:13:59.679Z,101240.31
2023-05-14T08:15:55.964Z,101244.38
2023-05-14T08:17:51.156Z,101240.44
2023-05-14T08:19:46.976Z,101238.41
2023-05-14T08:21:42.016Z,101240.06
2023-05-14T08:23:39.896Z,101236.13
2023-05-14T08:25:35.203Z,101235.84
2023-05-14T08:27:30.948Z,101242.34
2023-05-14T08:29:26.066Z,101238.22
2023-05-14T08:31:21.421Z,101241.06
2023-05-14T08:33:16.524Z,101235.72
2023-05-14T08:35:12.573Z,101235.44
2023-05-14T08:37:08.204Z,101232.25
2023-05-14T08:39:07.820Z,101228.81
2023-05-14T08:41:03.466Z,101234.78
2023-05-14T08:42:59.942Z,101228.34
2023-05-14T08:44:59.866Z,101231.63
2023-05-14T08:46:56.659Z,101221.56
2023-05-14T08:48:57.905Z,101223.16
2023-05-14T08:50:53.541Z,101219.81
2023-05-14T08:52:49.140Z,101218.97
2023-05-14T08:54:49.613Z,101216.63
2023-05-14T08:56:46.581Z,101211.75
2023-05-14T08:58:41.908Z,101214.53
2023-05-14T09:00:37.481Z,101208.84
2023-05-14T09:02:34.218Z,101201.53
2023-05-14T09:04:30.615Z,101202.16
2023-05-14T09:06:27.356Z,101200.06
2023-05-14T09:08:22.822Z,101185.50
2023-05-14T09:10:22.338Z,101187.06
2023-05-14T09:12:17.737Z,101182.16
2023-05-14T09:14:13.150Z,101181.34
2023-05-14T09:16:09.087Z,101173.78
2023-05-14T09:18:04.652Z,101181.69
2023-05-14T09:19:59.900Z,101166.91
2023-05-14T09:21:55.277Z,101176.34
2023-05-14T09:23:50.257Z,101166.09
2023-05-14T09:25:50.632Z,101166.53
2023-05-14T09:27:50.294Z,101174.00
2023-05-14T09:29:45.745Z,101162.28
2023-05-14T09:31:40.879Z,101156.16
2023-05-14T09:33:36.983Z,101156.13
2023-05-14T09:35:32.682Z,101151.03
2023-05-14T09:37:28.416Z,101150.19
2023-05-14T09:39:23.940Z,101152.66
2023-05-14T09:41:23.205Z,101145.66
2023-05-14T09:43:18.812Z,101151.22
2023-05-14T09:45:14.837Z,101139.88
2023-05-14T09:47:10.254Z,101139.06
2023-05-14T09:49:05.696Z,101135.56
2023-05-14T09:51:02.711Z,101133.09
2023-05-14T09:52:58.851Z,101125.44
2023-05-14T09:54:55.039Z,101128.56
2023-05-14T09:56:55.480Z,101129.56
2023-05-14T09:58:50.923Z,101119.47
2023-05-14T10:00:48.664Z,101127.09
2023-05-14T10:02:45.648Z,101117.63
2023-05-14T10:04:44.053Z,101115.34
2023-05-14T10:06:42.416Z,101110.22
2023-05-14T10:08:39.307Z,101111.66
2023-05-14T10:10:37.000Z,101101.94
2023-05-14T10:12:37.151Z,101105.47
2023-05-14T10:14:38.144Z,101108.97
2023-05-14T10:16:37.988Z,101102.19
2023-05-14T10:18:38.142Z,101105.91
2023-05-14T10:20:34.221Z,101101.97
2023-05-14T10:22:30.626Z,101104.66
2023-05-14T10:24:27.541Z,101099.91
2023-05-14T10:26:24.177Z,101092.50
2023-05-14T10:28:22.249Z,101093.13
2023-05-14T10:30:17.669Z,101096.41
2023-05-14T10:32:13.505Z,101091.88
2023-05-14T10:34:40.714Z,101092.28
2023-05-14T10:36:36.692Z,101087.94
2023-05-14T10:38:34.019Z,101088.16
2023-05-14T10:40:30.868Z,101092.50
2023-05-14T10:42:27.538Z,101081.16
2023-05-14T10:44:28.723Z,101078.28
2023-05-14T10:46:23.833Z,101078.91
2023-05-14T10:48:19.790Z,101073.34
2023-05-14T10:50:17.731Z,101079.69
2023-05-14T10:52:15.033Z,101076.81
2023-05-14T10:54:11.429Z,101081.78
2023-05-14T10:56:08.593Z,101080.94
2023-05-14T10:58:07.826Z,101075.81
2023-05-14T11:00:07.726Z,101081.38
2023-05-14T11:02:02.876Z,101076.84
2023-05-14T11:04:01.466Z,101071.66
2023-05-14T11:06:21.133Z,101078.69
2023-05-14T11:08:39.174Z,101075.59
2023-05-14T11:10:49.857Z,101073.75
2023-05-14T11:12:53.031Z,101069.00
2023-05-14T11:14:50.828Z,101064.88
2023-05-14T11:19:52.886Z,101065.91
2023-05-14T11:21:50.307Z,101056.63
2023-05-14T11:23:45.298Z,101058.09
2023-05-14T11:25:40.818Z,101052.50
2023-05-14T11:27:37.778Z,101058.09
2023-05-14T11:29:33.102Z,101055.81
2023-05-14T11:31:28.799Z,101045.53
2023-05-14T11:33:26.778Z,101053.53
2023-05-14T11:35:27.721Z,101045.91
2023-05-14T11:37:25.154Z,101050.03
2023-05-14T11:41:42.844Z,101038.50
2023-05-14T11:43:39.362Z,101035.59
2023-05-14T11:45:36.538Z,101036.84
2023-05-14T11:47:32.693Z,101039.50
2023-05-14T11:49:32.007Z,101030.84
2023-05-14T11:51:27.315Z,101025.47
2023-05-14T11:53:29.583Z,101020.72
2023-05-14T11:55:29.110Z,101027.53
2023-05-14T11:57:50.042Z,101022.78
2023-05-14T12:00:00.504Z,101014.34
2023-05-14T12:01:59.296Z,101021.75
2023-05-14T12:03:55.073Z,101011.28
2023-05-14T12:06:02.347Z,101013.97
2023-05-14T12:08:09.759Z,101001.19
2023-05-14T12:10:20.721Z,101000.38
2023-05-14T12:12:24.725Z,100996.25
2023-05-14T12:14:22.581Z,101004.91
2023-05-14T12:16:18.924Z,101004.28
2023-05-14T12:18:23.893Z,101001.78
2023-05-14T12:20:20.715Z,100996.00
2023-05-14T12:24:41.361Z,100991.78
2023-05-14T12:26:40.934Z,101000.81
2023-05-14T12:28:38.788Z,100985.31
2023-05-14T12:30:46.114Z,100982.78
2023-05-14T12:32:50.388Z,100983.97
2023-05-14T12:34:46.704Z,100985.38
2023-05-14T12:36:43.904Z,100985.09
2023-05-14T12:38:44.362Z,100981.19
2023-05-14T12:40:40.515Z,100984.19
2023-05-14T12:42:39.886Z,100971.84
2023-05-14T12:44:39.914Z,100970.84
2023-05-14T12:46:37.012Z,100972.28
2023-05-14T12:48:32.207Z,100958.84
2023-05-14T12:50:27.744Z,100956.13
2023-05-14T12:52:36.714Z,100959.94
2023-05-14T12:54:36.309Z,100955.91
2023-05-14T12:56:32.199Z,100959.31
2023-05-14T12:58:27.584Z,100963.31
2023-05-14T13:00:23.308Z,100964.81
2023-05-14T13:02:19.094Z,100960.84
2023-05-14T13:04:33.579Z,100965.06
2023-05-14T13:06:32.382Z,100962.72
2023-05-14T13:08:30.249Z,100953.31
2023-05-14T13:10:31.562Z,100954.66
2023-05-14T13:12:27.429Z,100951.88
2023-05-14T13:14:23.221Z,100952.22
2023-05-14T13:16:18.443Z,100955.88
2023-05-14T13:18:14.115Z,100945.78
2023-05-14T13:20:10.843Z,100947.13
2023-05-14T13:22:07.116Z,100946.63
2023-05-14T13:24:02.992Z,100941.53
2023-05-14T13:26:03.871Z,100943.56
2023-05-14T13:28:04.598Z,100938.25
2023-05-14T13:30:02.670Z,100936.69
2023-05-14T13:32:02.264Z,100934.03
2023-05-14T13:34:06.534Z,100939.75
2023-05-14T13:36:01.846Z,100929.47
2023-05-14T13:37:57.371Z,100929.47
2023-05-14T13:39:52.476Z,100925.13
2023-05-14T13:41:50.957Z,100918.72
2023-05-14T13:43:46.113Z,100922.66
2023-05-14T13:45:44.703Z,100921.56
2023-05-14T13:47:44.902Z,100916.13
2023-05-14T13:49:40.991Z,100919.69
2023-05-14T13:52:05.737Z,100915.31
2023-05-14T13:55:22.433Z,100912.69
2023-05-14T13:57:59.974Z,100908.19
2023-05-14T14:00:19.870Z,100915.69
2023-05-14T14:02:41.762Z,100912.34
2023-05-14T14:05:07.076Z,100899.00
2023-05-14T14:07:10.389Z,100903.19
2023-05-14T14:09:17.974Z,100906.00
2023-05-14T14:11:39.459Z,100896.94
2023-05-14T14:13:47.850Z,100894.41
2023-05-14T14:15:43.827Z,100897.84
2023-05-14T14:17:41.786Z,100895.06
2023-05-14T14:19:37.092Z,100897.69
2023-05-14T14:21:44.592Z,100893.34
2023-05-14T14:23:43.023Z,100890.31
2023-05-14T14:25:38.710Z,100886.75
2023-05-14T14:27:36.253Z,100882.41
2023-05-14T14:29:36.835Z,100878.09
2023-05-14T14:31:32.268Z,100880.97
2023-05-14T14:33:29.596Z,100875.50
2023-05-14T14:35:26.677Z,100877.09
2023-05-14T14:37:59.935Z,100869.44
2023-05-14T14:40:05.955Z,100873.16
2023-05-14T14:42:42.284Z,100866.28
2023-05-14T14:45:28.783Z,100867.31
2023-05-14T14:51:23.290Z,100861.38
2023-05-14T14:53:24.716Z,100868.38
2023-05-14T14:55:44.028Z,100864.22
2023-05-14T14:59:05.793Z,100862.88
2023-05-14T15:01:25.052Z,100858.47
2023-05-14T15:03:30.537Z,100853.03
2023-05-14T15:05:30.199Z,100850.56
2023-05-14T15:07:32.244Z,100853.19
2023-05-14T15:09:31.005Z,100843.84
2023-05-14T15:11:26.263Z,100847.75
2023-05-14T15:13:24.820Z,100854.44
2023-05-14T15:15:21.234Z,100845.63
2023-05-14T15:17:20.813Z,100842.09
2023-05-14T15:19:31.612Z,100844.84
2023-05-14T15:21:30.123Z,100847.25
2023-05-14T15:23:35.752Z,100838.34
2023-05-14T15:28:37.744Z,100828.19
2023-05-14T15:31:36.496Z,100823.97
2023-05-14T15:37:03.966Z,100830.34
2023-05-14T15:39:05.960Z,100825.88
2023-05-14T15:41:09.469Z,100824.84
2023-05-14T15:43:05.707Z,100823.22
2023-05-14T15:45:04.074Z,100825.28
2023-05-14T15:47:12.594Z,100817.06
2023-05-14T15:49:21.645Z,100816.56
2023-05-14T15:51:20.139Z,100816.69
2023-05-14T15:53:17.155Z,100819.25
2023-05-14T15:55:15.969Z,100817.81
2023-05-14T15:57:11.454Z,100816.03
2023-05-14T15:59:07.201Z,100817.50
2023-05-14T16:01:02.992Z,100818.56
2023-05-14T16:02:58.897Z,100808.72
2023-05-14T16:04:57.771Z,100805.75
2023-05-14T16:06:54.455Z,100802.22
2023-05-14T16:08:50.013Z,100795.66
2023-05-14T16:10:54.551Z,100801.03
2023-05-14T16:12:50.261Z,100798.50
2023-05-14T16:15:00.405Z,100796.50
2023-05-14T16:16:59.196Z,100798.94
2023-05-14T16:18:54.969Z,100797.44
2023-05-14T16:20:50.207Z,100797.44
2023-05-14T16:22:52.917Z,100793.38
2023-05-14T16:24:48.555Z,100789.84
2023-05-14T16:26:47.326Z,100797.44
2023-05-14T16:28:44.456Z,100789.38
2023-05-14T16:30:42.707Z,100793.19
2023-05-14T16:32:43.330Z,100788.53
2023-05-14T16:34:54.124Z,100783.28
2023-05-14T16:37:01.658Z,100782.88
2023-05-14T16:39:07.335Z,100785.91
2023-05-14T16:41:04.142Z,100784.75
2023-05-14T16:43:02.357Z,100787.34
2023-05-14T16:45:03.155Z,100783.03
2023-05-14T16:47:04.743Z,100787.38
2023-05-14T16:49:23.861Z,100774.31
2023-05-14T16:51:26.702Z,100778.38
2023-05-14T16:53:36.256Z,100776.16
2023-05-14T16:55:31.620Z,100774.66
2023-05-14T16:57:27.472Z,100782.03
2023-05-14T17:02:21.580Z,100771.34
2023-05-14T17:04:22.560Z,100779.88
2023-05-14T17:06:18.340Z,100772.41
2023-05-14T17:08:13.838Z,100770.00
2023-05-14T17:10:10.529Z,100767.16
2023-05-14T17:12:08.441Z,100773.22
2023-05-14T17:14:06.304Z,100772.25
2023-05-14T17:16:02.474Z,100769.06
2023-05-14T17:18:00.947Z,100761.41
2023-05-14T17:19:56.674Z,100772.47
2023-05-14T17:21:51.809Z,100764.50
2023-05-14T17:23:47.227Z,100770.66
2023-05-14T17:25:42.520Z,100769.28
2023-05-14T17:27:37.955Z,100771.50
2023-05-14T17:29:36.075Z,100769.78
2023-05-14T17:31:31.494Z,100773.19
2023-05-14T17:33:29.259Z,100773.41
2023-05-14T17:35:25.065Z,100770.13
2023-05-14T17:37:20.469Z,100775.28
2023-05-14T17:39:16.332Z,100782.97
2023-05-14T17:41:11.441Z,100782.84
2023-05-14T17:43:08.750Z,100774.19
2023-05-14T17:45:03.929Z,100773.22
2023-05-14T17:47:00.618Z,100777.00
2023-05-14T17:48:58.486Z,100777.00
2023-05-14T17:50:54.397Z,100782.19
2023-05-14T17:52:54.009Z,100777.25
2023-05-14T17:54:55.033Z,100770.91
2023-05-14T17:56:51.235Z,100781.50
2023-05-14T17:58:54.227Z,100778.69
2023-05-14T18:04:16.761Z,100777.28
2023-05-14T18:06:19.321Z,100782.13
2023-05-14T18:08:30.221Z,100788.38
2023-05-14T18:10:32.289Z,100786.38
2023-05-14T18:12:41.880Z,100783.91
2023-05-14T18:14:41.927Z,100782.69
2023-05-14T18:17:46.902Z,100775.50
2023-05-14T18:20:55.436Z,100782.25
2023-05-14T18:22:52.604Z,100780.56
2023-05-14T18:24:58.817Z,100787.22
2023-05-14T18:27:20.220Z,100784.72
2023-05-14T18:29:17.795Z,100784.56
2023-05-14T18:31:13.117Z,100783.22
2023-05-14T18:33:08.581Z,100787.25
2023-05-14T18:35:05.670Z,100783.22
2023-05-14T18:37:14.623Z,100788.38
2023-05-14T18:39:11.853Z,100784.31
2023-05-14T18:41:09.510Z,100784.28
2023-05-14T18:43:05.240Z,100787.84
2023-05-14T18:45:01.756Z,100783.91
2023-05-14T18:46:59.547Z,100786.84
2023-05-14T18:49:49.880Z,100793.41
2023-05-14T18:52:14.289Z,100791.78
2023-05-14T18:54:17.239Z,100791.00
2023-05-14T18:56:13.161Z,100791.44
2023-05-14T18:58:09.250Z,100794.31
2023-05-14T19:00:05.460Z,100796.78
2023-05-14T19:02:01.225Z,100797.03
2023-05-14T19:04:00.220Z,100796.63
2023-05-14T19:05:57.815Z,100799.56
2023-05-14T19:07:54.950Z,100793.19
2023-05-14T19:09:59.692Z,100788.28
2023-05-14T19:12:07.437Z,100794.03
2023-05-14T19:14:07.327Z,100796.72
2023-05-14T19:16:03.397Z,100792.59
2023-05-14T19:17:59.276Z,100794.03
2023-05-14T19:19:54.888Z,100797.75
2023-05-14T19:22:02.014Z,100790.53
2023-05-14T19:26:00.628Z,100795.88
2023-05-14T19:28:01.651Z,100792.22
2023-05-14T19:30:01.388Z,100791.19
2023-05-14T19:32:00.166Z,100789.13
2023-05-14T19:33:57.969Z,100785.03
2023-05-14T19:36:00.844Z,100795.13
2023-05-14T19:38:14.825Z,100791.00
2023-05-14T19:43:23.520Z,100789.59
2023-05-14T19:45:52.960Z,100786.69
2023-05-14T19:47:48.700Z,100782.78
2023-05-14T19:49:44.692Z,100772.94
2023-05-14T19:51:41.283Z,100771.09
2023-05-14T19:53:37.130Z,100776.88
2023-05-14T19:55:32.826Z,100772.56
2023-05-14T19:57:51.664Z,100776.44
2023-05-14T20:02:54.066Z,100777.47
2023-05-14T20:04:58.572Z,100765.97
2023-05-14T20:07:03.406Z,100769.69
2023-05-14T20:09:42.517Z,100778.31
2023-05-14T20:15:11.242Z,100774.19
2023-05-14T20:17:09.204Z,100769.69
2023-05-14T20:19:21.448Z,100766.38
2023-05-14T20:21:18.404Z,100767.59
2023-05-14T20:23:14.025Z,100771.31
2023-05-14T20:25:10.420Z,100763.06
2023-05-14T20:27:05.963Z,100761.00
2023-05-14T20:29:01.785Z,100757.69
2023-05-14T20:30:59.113Z,100756.25
2023-05-14T20:32:56.880Z,100759.94
2023-05-14T20:35:02.886Z,100757.03
2023-05-14T20:36:58.472Z,100753.97
2023-05-14T20:38:56.187Z,100752.72
2023-05-14T20:40:52.180Z,100754.16
2023-05-14T20:42:47.536Z,100742.88
2023-05-14T20:44:43.170Z,100745.28
2023-05-14T20:46:38.831Z,100744.69
2023-05-14T20:48:34.411Z,100739.75
2023-05-14T20:50:32.399Z,100742.59
2023-05-14T20:52:27.907Z,100740.13
2023-05-14T20:54:22.903Z,100735.56
2023-05-14T20:56:18.391Z,100734.94
2023-05-14T20:58:13.563Z,100730.78
2023-05-14T21:00:10.565Z,100731.56
2023-05-14T21:02:06.221Z,100729.34
2023-05-14T21:04:01.953Z,100720.09
2023-05-14T21:06:00.731Z,100725.22
2023-05-14T21:07:56.107Z,100723.56
2023-05-14T21:09:52.738Z,100727.63
2023-05-14T21:11:48.458Z,100724.69
2023-05-14T21:13:43.932Z,100721.84
2023-05-14T21:15:39.986Z,100714.91
2023-05-14T21:17:35.444Z,100715.53
2023-05-14T21:19:31.131Z,100711.22
2023-05-14T21:21:30.331Z,100710.81
2023-05-14T21:23:26.054Z,100712.38
2023-05-14T21:25:21.038Z,100715.25
2023-05-14T21:27:16.532Z,100716.28
2023-05-14T21:29:11.577Z,100706.81
2023-05-14T21:31:07.002Z,100709.06
2023-05-14T21:33:02.053Z,100702.72
2023-05-14T21:34:57.517Z,100705.78
2023-05-14T21:36:55.399Z,100703.75
2023-05-14T21:38:50.791Z,100698.81
2023-05-14T21:40:45.884Z,100697.16
2023-05-14T21:42:44.593Z,100699.22
2023-05-14T21:45:03.808Z,100703.13
2023-05-14T21:46:59.293Z,100700.25
2023-05-14T21:48:54.584Z,100696.94
2023-05-14T21:50:50.031Z,100699.63
2023-05-14T21:52:47.748Z,100693.47
2023-05-14T21:54:43.131Z,100697.13
2023-05-14T21:56:38.740Z,100697.53
2023-05-14T21:58:34.311Z,100684.81
2023-05-14T22:00:29.413Z,100691.75
2023-05-14T22:02:25.031Z,100685.34
2023-05-14T22:04:20.186Z,100688.00
2023-05-14T22:06:15.685Z,100681.00
2023-05-14T22:08:13.640Z,100682.22
2023-05-14T22:10:09.906Z,100676.84
2023-05-14T22:12:05.127Z,100677.84
2023-05-14T22:14:00.471Z,100672.72
2023-05-14T22:16:05.229Z,100672.47
2023-05-14T22:18:08.094Z,100673.25
2023-05-14T22:20:03.536Z,100667.69
2023-05-14T22:21:59.029Z,100678.53
2023-05-14T22:23:57.020Z,100672.13
2023-05-14T22:25:52.886Z,100663.69
2023-05-14T22:27:48.286Z,100662.88
2023-05-14T22:29:43.959Z,100669.84
2023-05-14T22:31:39.532Z,100670.88
2023-05-14T22:33:35.985Z,100662.25
2023-05-14T22:35:31.453Z,100662.44
2023-05-14T22:37:27.171Z,100665.91
2023-05-14T22:39:25.178Z,100667.75
2023-05-14T22:41:22.036Z,100662.81
2023-05-14T22:43:17.400Z,100666.91
2023-05-14T22:45:13.552Z,100653.41
2023-05-14T22:47:09.098Z,100655.25
2023-05-14T22:49:04.768Z,100656.47
2023-05-14T22:51:00.202Z,100656.66
2023-05-14T22:52:55.831Z,100651.31
2023-05-14T22:54:53.873Z,100647.84
2023-05-14T22:56:49.660Z,100649.25
2023-05-14T22:58:44.994Z,100646.78
2023-05-14T23:00:40.496Z,100654.53
2023-05-14T23:02:35.980Z,100645.06
2023-05-14T23:04:31.535Z,100649.38
2023-05-14T23:06:28.143Z,100641.59
2023-05-14T23:08:23.064Z,100640.75
2023-05-14T23:10:21.292Z,100643.63
2023-05-14T23:12:16.352Z,100635.66
2023-05-14T23:14:15.413Z,100633.63
2023-05-14T23:16:11.257Z,100634.41
2023-05-14T23:18:06.917Z,100630.31
2023-05-14T23:20:01.956Z,100624.31
2023-05-14T23:21:58.356Z,100629.38
2023-05-14T23:23:53.383Z,100624.44
2023-05-14T23:25:51.662Z,100619.88
2023-05-14T23:27:46.689Z,100621.47
2023-05-14T23:29:42.075Z,100618.75
2023-05-14T23:31:37.079Z,100617.91
2023-05-14T23:33:30.049Z,100611.97
2023-05-14T23:35:25.337Z,100613.59
2023-05-14T23:37:21.144Z,100611.41
2023-05-14T23:39:16.415Z,100604.25
2023-05-14T23:41:14.430Z,100605.25
2023-05-14T23:43:09.394Z,100604.59
2023-05-14T23:45:05.382Z,100603.16
2023-05-14T23:47:00.775Z,100599.63
2023-05-14T23:48:57.208Z,100597.28
2023-05-14T23:50:52.227Z,100595.19
2023-05-14T23:52:47.603Z,100598.69
2023-05-14T23:54:42.595Z,100588.84
2023-05-14T23:56:40.634Z,100587.00
2023-05-14T23:58:35.667Z,100582.06
